.
WxDataArchive / Data Records for 2008-04-29
2008-04-28 April 2008 2008-04-30

Data Records for Tuesday, 29 April 2008

Time	Temp	Chill	HIndex	Humid	Dewpt	 Wind 	HiWind	WindDir	Rain 	Barom 
-----	----	-----	------	-----	-----	------	------	-------	-----	----- 
00:00	39.8	39.8	39.8	92	37.7	1	5	68	0.01	29.869 
00:05	39.5	39.5	39.5	92	37.4	1	6	90	0.01	29.869 
00:10	39.2	39.2	39.2	91	36.8	1	2	68	0.00	29.872 
00:15	38.9	38.9	38.9	91	36.5	1	5	68	0.01	29.876 
00:20	38.6	38.6	38.6	91	36.2	1	4	112	0.01	29.881 
00:25	38.5	38.5	38.5	91	36.1	0	3	112	0.00	29.885 
00:30	38.3	38.3	38.3	91	35.9	0	3	112	0.01	29.886 
00:35	38.0	38.0	38.0	91	35.6	1	2	90	0.00	29.889 
00:40	37.6	37.6	37.6	91	35.2	1	3	112	0.01	29.895 
00:45	37.2	37.2	37.2	91	34.8	1	3	22	0.01	29.899 
00:50	36.9	36.9	36.9	91	34.5	0	2	112	0.01	29.901 
00:55	36.5	36.5	36.5	91	34.1	1	3	22	0.01	29.902 
01:00	36.2	36.2	36.2	91	33.8	0	2	45	0.00	29.903 
01:05	36.0	36.0	36.0	92	33.9	0	0	---	0.01	29.902 
01:10	36.0	36.0	36.0	92	33.9	0	0	---	0.00	29.902 
01:15	36.0	36.0	36.0	92	33.9	0	1	68	0.00	29.902 
01:20	36.0	36.0	36.0	92	33.9	0	0	---	0.00	29.902 
01:25	35.9	35.9	35.9	92	33.8	0	1	68	0.00	29.902 
01:30	35.9	35.9	35.9	92	33.8	0	1	68	0.00	29.902 
01:35	36.0	36.0	36.0	92	33.9	0	0	---	0.00	29.902 
01:40	36.0	36.0	36.0	92	33.9	0	0	---	0.00	29.905 
01:45	36.2	36.2	36.2	93	34.4	0	0	---	0.00	29.908 
01:50	36.2	36.2	36.2	93	34.4	0	0	---	0.00	29.910 
01:55	36.2	36.2	36.2	93	34.4	0	0	---	0.00	29.912 
02:00	36.2	36.2	36.2	93	34.4	0	0	---	0.00	29.913 
02:05	36.3	36.3	36.3	93	34.5	0	1	68	0.00	29.915 
02:10	36.3	36.3	36.3	93	34.5	0	0	---	0.00	29.915 
02:15	36.3	36.3	36.3	93	34.5	0	0	---	0.00	29.916 
02:20	36.3	36.3	36.3	93	34.5	0	0	---	0.00	29.917 
02:25	36.2	36.2	36.2	93	34.4	0	0	---	0.00	29.918 
02:30	36.2	36.2	36.2	94	34.6	0	0	---	0.00	29.919 
02:35	36.2	36.2	36.2	94	34.6	0	0	---	0.00	29.919 
02:40	36.2	36.2	36.2	94	34.6	0	0	---	0.00	29.920 
02:45	36.0	36.0	36.0	94	34.4	0	0	---	0.00	29.921 
02:50	35.9	35.9	35.9	94	34.3	0	0	---	0.00	29.921 
02:55	35.8	35.8	35.8	94	34.2	0	0	---	0.00	29.925 
03:00	35.8	35.8	35.8	94	34.2	0	0	---	0.00	29.931 
03:05	35.8	35.8	35.8	94	34.2	0	0	---	0.00	29.935 
03:10	35.9	35.9	35.9	94	34.3	0	0	---	0.00	29.939 
03:15	36.2	36.2	36.2	94	34.6	0	1	68	0.00	29.943 
03:20	36.3	36.3	36.3	94	34.7	0	1	68	0.00	29.947 
03:25	36.5	36.5	36.5	95	35.2	0	1	68	0.00	29.950 
03:30	36.5	36.5	36.5	95	35.2	0	0	---	0.00	29.951 
03:35	36.5	36.5	36.5	95	35.2	0	0	---	0.00	29.952 
03:40	36.5	36.5	36.5	95	35.2	0	1	68	0.00	29.953 
03:45	36.5	36.5	36.5	95	35.2	0	2	68	0.00	29.954 
03:50	36.5	36.5	36.5	95	35.2	0	1	68	0.00	29.958 
03:55	36.5	36.5	36.5	95	35.2	0	1	68	0.00	29.963 
04:00	36.5	36.5	36.5	95	35.2	0	0	---	0.00	29.964 
04:05	36.5	36.5	36.5	95	35.2	0	1	68	0.00	29.968 
04:10	36.5	36.5	36.5	95	35.2	0	1	68	0.00	29.968 
04:15	36.3	36.3	36.3	95	35.0	0	1	68	0.00	29.974 
04:20	36.3	36.3	36.3	95	35.0	0	1	68	0.00	29.976 
04:25	36.2	36.2	36.2	95	34.9	0	1	68	0.00	29.977 
04:30	36.2	36.2	36.2	95	34.9	0	1	68	0.00	29.977 
04:35	36.0	36.0	36.0	95	34.7	0	0	---	0.00	29.978 
04:40	35.9	35.9	35.9	95	34.6	0	0	---	0.00	29.976 
04:45	35.8	35.8	35.8	95	34.5	0	0	---	0.00	29.978 
04:50	35.6	35.6	35.6	95	34.3	0	1	68	0.00	29.980 
04:55	35.5	35.5	35.5	95	34.2	0	0	---	0.00	29.983 
05:00	35.5	35.5	35.5	95	34.2	0	0	---	0.00	29.987 
05:05	35.2	35.2	35.2	95	33.9	0	0	---	0.00	29.994 
05:10	35.0	35.0	35.0	95	33.7	0	0	---	0.00	29.995 
05:15	34.9	34.9	34.9	95	33.6	0	0	---	0.00	29.997 
05:20	34.7	34.7	34.7	95	33.4	0	0	---	0.00	29.996 
05:25	34.6	34.6	34.6	95	33.3	0	0	---	0.00	29.999 
05:30	34.6	34.6	34.6	95	33.3	0	0	---	0.00	30.005 
05:35	34.6	34.6	34.6	95	33.3	0	0	---	0.00	30.007 
05:40	34.4	34.4	34.4	95	33.1	0	0	---	0.00	30.008 
05:45	34.3	34.3	34.3	95	33.0	0	0	---	0.01	30.010 
05:50	34.0	34.0	34.0	95	32.7	0	0	---	0.00	30.011 
05:55	33.8	33.8	33.8	95	32.5	0	0	---	0.00	30.011 
06:00	33.5	33.5	33.5	95	32.2	0	0	---	0.00	30.013 
06:05	33.4	33.4	33.4	95	32.1	0	0	---	0.00	30.016 
06:10	33.4	33.4	33.4	95	32.1	0	0	---	0.00	30.016 
06:15	33.5	33.5	33.5	95	32.2	0	0	---	0.00	30.016 
06:20	34.0	34.0	34.0	95	32.7	0	0	---	0.00	30.022 
06:25	34.4	34.4	34.4	96	33.4	0	0	---	0.00	30.024 
06:30	34.9	34.9	34.9	96	33.9	0	0	---	0.00	30.026 
06:35	35.5	35.5	35.5	96	34.5	0	0	---	0.00	30.028 
06:40	35.8	35.8	35.8	96	34.8	0	0	---	0.00	30.028 
06:45	36.0	36.0	36.0	96	35.0	0	1	68	0.00	30.032 
06:50	36.3	36.3	36.3	96	35.3	0	0	---	0.00	30.036 
06:55	36.6	36.6	36.6	96	35.6	0	0	---	0.00	30.038 
07:00	36.9	36.9	36.9	96	35.9	0	1	68	0.00	30.040 
07:05	37.3	37.3	37.3	96	36.3	0	1	68	0.00	30.041 
07:10	37.6	37.6	37.6	96	36.6	0	1	68	0.00	30.042 
07:15	37.8	37.8	37.8	96	36.8	0	3	338	0.00	30.046 
07:20	37.9	37.9	37.9	95	36.6	0	1	338	0.00	30.049 
07:25	38.2	38.2	38.2	95	36.9	0	1	338	0.00	30.053 
07:30	38.3	38.3	38.3	95	37.0	0	2	338	0.00	30.053 
07:35	38.6	38.6	38.6	94	37.0	0	1	338	0.00	30.052 
07:40	39.2	39.2	39.2	93	37.3	0	2	338	0.00	30.051 
07:45	39.6	39.6	39.6	91	37.2	0	2	338	0.00	30.052 
07:50	39.9	39.9	39.9	88	36.6	0	3	338	0.00	30.053 
07:55	40.2	40.2	40.2	86	36.4	0	1	338	0.00	30.052 
08:00	40.6	40.6	40.6	83	35.8	0	2	338	0.00	30.052 
08:05	40.8	40.8	40.8	79	34.8	0	3	270	0.00	30.053 
08:10	41.1	41.1	41.1	77	34.4	0	2	270	0.00	30.052 
08:15	41.5	41.5	41.5	76	34.5	0	1	270	0.00	30.057 
08:20	41.6	41.6	41.6	73	33.6	0	2	270	0.00	30.066 
08:25	42.1	42.1	42.1	73	34.1	0	3	292	0.00	30.067 
08:30	42.2	42.2	42.2	72	33.8	1	3	292	0.00	30.068 
08:35	42.2	42.2	42.2	71	33.5	0	2	292	0.00	30.069 
08:40	42.5	42.5	42.5	69	33.1	0	2	292	0.00	30.069 
08:45	42.8	42.8	42.8	70	33.7	1	2	292	0.00	30.067 
08:50	43.1	43.1	43.1	68	33.3	0	2	292	0.00	30.068 
08:55	43.3	43.3	43.3	70	34.2	1	3	270	0.00	30.068 
09:00	43.3	43.3	43.3	68	33.5	1	2	292	0.00	30.068 
09:05	43.5	43.5	43.5	69	34.0	0	2	292	0.00	30.068 
09:10	43.6	43.6	43.6	67	33.4	0	3	315	0.00	30.068 
09:15	43.9	43.9	43.9	68	34.0	1	5	315	0.00	30.067 
09:20	43.9	43.9	43.9	67	33.7	1	3	338	0.00	30.068 
09:25	44.3	44.3	44.3	67	34.0	1	2	338	0.00	30.069 
09:30	44.6	44.6	44.6	62	32.4	1	3	292	0.00	30.070 
09:35	44.5	44.5	44.5	63	32.7	1	4	248	0.00	30.073 
09:40	44.9	44.9	44.9	65	33.9	1	4	270	0.00	30.076 
09:45	45.1	45.1	45.1	63	33.3	1	3	270	0.00	30.079 
09:50	45.4	45.4	45.4	58	31.5	1	5	248	0.00	30.079 
09:55	45.7	45.7	45.7	61	33.0	2	5	270	0.00	30.080 
10:00	46.0	46.0	46.0	61	33.3	1	3	248	0.00	30.079 
10:05	46.1	46.1	46.1	57	31.7	0	2	0	0.00	30.079 
10:10	46.8	46.8	46.8	60	33.7	1	2	338	0.00	30.079 
10:15	47.0	47.0	47.0	60	33.8	1	4	270	0.00	30.079 
10:20	46.7	46.7	46.7	54	30.9	1	6	338	0.00	30.079 
10:25	46.5	46.5	46.5	53	30.3	2	4	338	0.00	30.081 
10:30	46.7	46.7	46.7	58	32.7	1	4	338	0.00	30.081 
10:35	47.1	47.1	47.1	57	32.7	1	4	0	0.00	30.080 
10:40	47.9	47.9	47.9	54	32.1	1	3	270	0.00	30.081 
10:45	47.7	47.7	47.7	56	32.8	1	4	0	0.00	30.080 
10:50	47.7	47.7	47.7	53	31.4	2	4	248	0.00	30.083 
10:55	48.0	48.0	48.0	56	33.1	1	4	248	0.00	30.082 
11:00	48.3	48.3	48.3	58	34.2	2	5	248	0.00	30.081 
11:05	48.3	48.3	48.3	52	31.5	1	4	248	0.00	30.083 
11:10	48.2	48.2	48.2	54	32.3	2	4	338	0.00	30.082 
11:15	48.0	48.0	48.0	53	31.7	2	4	248	0.00	30.081 
11:20	48.3	48.3	48.3	53	32.0	3	5	270	0.00	30.082 
11:25	48.6	48.6	48.6	55	33.2	2	6	248	0.00	30.082 
11:30	47.7	47.7	47.7	49	29.5	2	3	292	0.00	30.082 
11:35	48.2	48.2	48.2	55	32.8	1	3	248	0.00	30.080 
11:40	48.3	48.3	48.3	50	30.5	2	5	338	0.00	30.080 
11:45	48.8	48.8	48.8	52	32.0	2	5	270	0.00	30.079 
11:50	49.5	49.5	49.5	53	33.1	2	7	248	0.00	30.078 
11:55	49.2	49.2	49.2	50	31.4	2	5	338	0.00	30.077 
12:00	48.6	48.6	48.6	50	30.8	2	5	292	0.00	30.079 
12:05	48.6	48.6	48.6	48	29.8	2	6	292	0.00	30.082 
12:10	49.2	49.2	49.2	49	30.9	2	5	270	0.00	30.081 
12:15	49.5	49.5	49.5	49	31.1	2	4	270	0.00	30.078 
12:20	49.9	49.9	49.9	49	31.5	3	9	270	0.00	30.073 
12:25	49.6	49.6	49.6	50	31.7	2	5	248	0.00	30.078 
12:30	49.2	49.2	49.2	50	31.4	2	5	248	0.00	30.076 
12:35	49.4	49.4	49.4	54	33.5	2	5	248	0.00	30.076 
12:40	50.1	50.1	50.1	53	33.6	2	5	270	0.00	30.075 
12:45	50.5	50.5	50.5	51	33.1	1	4	292	0.00	30.069 
12:50	51.0	51.0	51.0	50	33.0	2	6	225	0.00	30.069 
12:55	50.8	50.8	50.8	45	30.2	3	7	270	0.00	30.071 
13:00	51.1	51.1	51.1	50	33.1	2	7	248	0.00	30.069 
13:05	50.7	50.7	50.7	48	31.7	2	5	270	0.00	30.067 
13:10	50.7	50.7	50.7	46	30.7	3	9	248	0.00	30.069 
13:15	50.8	50.8	50.8	48	31.8	1	5	315	0.00	30.068 
13:20	50.1	50.1	50.1	45	29.6	2	4	338	0.00	30.068 
13:25	50.2	50.2	50.2	45	29.7	2	4	315	0.00	30.066 
13:30	50.2	50.2	50.2	47	30.8	2	7	270	0.00	30.066 
13:35	51.0	51.0	51.0	44	29.9	2	4	248	0.00	30.065 
13:40	50.7	50.7	50.7	46	30.7	2	6	270	0.00	30.065 
13:45	50.2	50.2	50.2	45	29.7	2	9	338	0.00	30.065 
13:50	49.8	49.8	49.8	45	29.3	2	7	338	0.00	30.064 
13:55	50.1	50.1	50.1	44	29.0	1	3	315	0.00	30.064 
14:00	50.2	50.2	50.2	43	28.6	2	5	270	0.00	30.063 
14:05	49.9	49.9	49.9	43	28.3	2	4	270	0.00	30.062 
14:10	50.5	50.5	50.5	41	27.7	2	5	270	0.00	30.061 
14:15	51.1	51.1	51.1	40	27.6	3	10	248	0.00	30.063 
14:20	51.7	51.7	51.7	42	29.4	2	5	248	0.00	30.063 
14:25	51.9	51.9	51.9	41	28.9	3	7	248	0.00	30.059 
14:30	51.1	51.1	51.1	39	27.0	2	5	248	0.00	30.059 
14:35	50.2	50.2	50.2	40	26.8	4	8	248	0.00	30.056 
14:40	50.1	50.1	50.1	45	29.6	2	6	248	0.00	30.057 
14:45	50.1	50.1	50.1	42	27.9	2	5	270	0.00	30.054 
14:50	51.0	51.0	51.0	44	29.9	2	5	292	0.00	30.053 
14:55	51.3	51.3	51.3	41	28.4	2	5	270	0.00	30.052 
15:00	50.4	50.4	50.4	42	28.2	2	4	248	0.00	30.051 
15:05	49.5	49.5	49.5	43	27.9	2	6	338	0.00	30.050 
15:10	49.1	49.1	49.1	44	28.1	2	4	338	0.00	30.050 
15:15	49.2	49.2	49.2	44	28.2	1	6	315	0.00	30.047 
15:20	49.5	49.5	49.5	46	29.6	2	6	270	0.00	30.048 
15:25	49.4	49.4	49.4	44	28.4	3	6	270	0.00	30.047 
15:30	49.2	49.2	49.2	43	27.7	3	7	270	0.00	30.047 
15:35	49.8	49.8	49.8	46	29.9	2	4	248	0.00	30.046 
15:40	49.5	49.5	49.5	42	27.4	3	6	270	0.00	30.047 
15:45	49.5	49.5	49.5	43	27.9	2	4	270	0.00	30.044 
15:50	49.5	49.5	49.5	42	27.4	2	6	270	0.00	30.047 
15:55	49.5	49.5	49.5	42	27.4	3	6	270	0.00	30.048 
16:00	49.4	49.4	49.4	41	26.7	2	6	292	0.00	30.047 
16:05	49.6	49.6	49.6	41	26.9	2	6	338	0.00	30.045 
16:10	49.8	49.8	49.8	42	27.6	3	6	270	0.00	30.046 
16:15	49.8	49.8	49.8	42	27.6	3	10	292	0.00	30.047 
16:20	49.2	49.2	49.2	41	26.5	3	7	270	0.00	30.047 
16:25	49.2	49.2	49.2	44	28.2	2	7	315	0.00	30.048 
16:30	49.2	49.2	49.2	44	28.2	2	5	338	0.00	30.048 
16:35	49.2	49.2	49.2	45	28.8	1	5	338	0.00	30.047 
16:40	49.6	49.6	49.6	43	28.0	2	5	270	0.00	30.050 
16:45	49.4	49.4	49.4	42	27.3	2	5	292	0.00	30.050 
16:50	48.5	48.5	48.5	43	27.0	2	6	338	0.00	30.052 
16:55	48.2	48.2	48.2	43	26.8	2	5	292	0.00	30.052 
17:00	48.2	48.2	48.2	44	27.3	2	5	315	0.00	30.054 
17:05	47.7	47.7	47.7	44	26.9	2	6	338	0.00	30.055 
17:10	47.6	47.6	47.6	46	27.9	1	3	292	0.00	30.055 
17:15	47.9	47.9	47.9	44	27.0	2	9	338	0.00	30.054 
17:20	47.6	47.6	47.6	44	26.8	2	4	338	0.00	30.057 
17:25	47.6	47.6	47.6	44	26.8	2	6	270	0.00	30.059 
17:30	47.6	47.6	47.6	44	26.8	2	5	315	0.00	30.061 
17:35	47.4	47.4	47.4	44	26.6	1	9	292	0.00	30.060 
17:40	47.4	47.4	47.4	41	24.9	2	4	315	0.00	30.063 
17:45	47.1	47.1	47.1	43	25.8	2	5	270	0.00	30.062 
17:50	46.8	46.8	46.8	43	25.5	2	6	270	0.00	30.064 
17:55	46.7	46.7	46.7	42	24.8	2	4	338	0.00	30.067 
18:00	46.4	46.4	46.4	41	24.0	1	3	292	0.00	30.067 
18:05	46.5	46.5	46.5	42	24.7	1	4	0	0.00	30.064 
18:10	46.7	46.7	46.7	39	23.1	2	6	292	0.00	30.063 
18:15	46.4	46.4	46.4	40	23.4	2	4	338	0.00	30.065 
18:20	46.1	46.1	46.1	39	22.5	2	5	315	0.00	30.065 
18:25	45.8	45.8	45.8	39	22.3	1	4	270	0.00	30.065 
18:30	45.8	45.8	45.8	40	22.9	1	4	315	0.00	30.064 
18:35	45.4	45.4	45.4	39	21.9	2	5	338	0.00	30.067 
18:40	45.2	45.2	45.2	41	22.9	1	3	292	0.00	30.069 
18:45	45.1	45.1	45.1	41	22.8	1	3	292	0.00	30.069 
18:50	44.8	44.8	44.8	40	22.0	1	2	0	0.00	30.068 
18:55	44.6	44.6	44.6	40	21.8	1	4	315	0.00	30.068 
19:00	44.3	44.3	44.3	41	22.1	1	4	270	0.00	30.069 
19:05	44.2	44.2	44.2	41	22.0	1	5	0	0.00	30.068 
19:10	43.8	43.8	43.8	41	21.7	1	4	292	0.00	30.068 
19:15	43.5	43.5	43.5	43	22.5	0	2	315	0.00	30.067 
19:20	43.2	43.2	43.2	42	21.7	0	2	315	0.00	30.067 
19:25	42.9	42.9	42.9	43	22.0	0	1	292	0.00	30.067 
19:30	42.6	42.6	42.6	44	22.2	0	1	292	0.00	30.068 
19:35	42.5	42.5	42.5	44	22.1	0	2	292	0.00	30.067 
19:40	42.2	42.2	42.2	44	21.9	0	2	292	0.00	30.069 
19:45	42.1	42.1	42.1	43	21.2	1	4	315	0.00	30.069 
19:50	41.9	41.9	41.9	44	21.6	0	1	270	0.00	30.070 
19:55	41.6	41.6	41.6	45	21.9	0	1	270	0.00	30.070 
20:00	41.3	41.3	41.3	45	21.6	0	2	270	0.00	30.071 
20:05	41.2	41.2	41.2	45	21.5	0	2	315	0.00	30.069 
20:10	41.1	41.1	41.1	45	21.4	0	2	315	0.00	30.069 
20:15	40.8	40.8	40.8	46	21.6	0	1	315	0.00	30.069 
20:20	40.6	40.6	40.6	46	21.5	0	1	315	0.00	30.069 
20:25	40.3	40.3	40.3	47	21.7	0	1	315	0.00	30.068 
20:30	40.1	40.1	40.1	48	22.0	0	1	315	0.00	30.072 
20:35	39.9	39.9	39.9	48	21.8	0	1	315	0.00	30.073 
20:40	39.8	39.8	39.8	49	22.2	0	1	315	0.00	30.072 
20:45	39.6	39.6	39.6	48	21.5	0	1	315	0.00	30.075 
20:50	39.6	39.6	39.6	49	22.0	0	1	315	0.00	30.076 
20:55	39.5	39.5	39.5	49	21.9	0	1	315	0.00	30.077 
21:00	39.3	39.3	39.3	49	21.8	0	0	---	0.00	30.076 
21:05	39.1	39.1	39.1	50	22.0	0	1	315	0.00	30.074 
21:10	39.1	39.1	39.1	50	22.0	0	1	315	0.00	30.073 
21:15	38.8	38.8	38.8	50	21.8	0	1	315	0.00	30.072 
21:20	38.6	38.6	38.6	51	22.1	0	0	---	0.00	30.069 
21:25	38.3	38.3	38.3	52	22.2	0	0	---	0.00	30.068 
21:30	38.2	38.2	38.2	52	22.1	0	1	315	0.00	30.068 
21:35	38.0	38.0	38.0	53	22.4	0	0	---	0.00	30.068 
21:40	37.9	37.9	37.9	52	21.9	0	1	315	0.00	30.067 
21:45	37.9	37.9	37.9	53	22.3	0	0	---	0.00	30.068 
21:50	37.8	37.8	37.8	53	22.2	0	1	315	0.00	30.069 
21:55	37.8	37.8	37.8	53	22.2	0	1	315	0.00	30.069 
22:00	37.6	37.6	37.6	53	22.0	0	1	315	0.00	30.069 
22:05	37.5	37.5	37.5	54	22.4	0	0	---	0.00	30.067 
22:10	37.2	37.2	37.2	54	22.1	0	0	---	0.00	30.069 
22:15	37.3	37.3	37.3	53	21.8	0	1	315	0.00	30.068 
22:20	37.3	37.3	37.3	54	22.2	0	0	---	0.00	30.068 
22:25	37.2	37.2	37.2	54	22.1	0	1	315	0.00	30.068 
22:30	37.0	37.0	37.0	54	21.9	0	1	315	0.00	30.067 
22:35	37.0	37.0	37.0	54	21.9	0	1	315	0.00	30.067 
22:40	37.0	37.0	37.0	53	21.5	0	1	315	0.00	30.068 
22:45	36.9	36.9	36.9	54	21.8	0	1	315	0.00	30.068 
22:50	36.9	36.9	36.9	54	21.8	0	1	315	0.00	30.068 
22:55	36.8	36.8	36.8	54	21.7	0	1	315	0.00	30.067 
23:00	36.6	36.6	36.6	54	21.5	0	0	---	0.00	30.067 
23:05	36.6	36.6	36.6	54	21.5	0	2	315	0.00	30.066 
23:10	36.5	36.5	36.5	54	21.5	0	0	---	0.00	30.065 
23:15	36.3	36.3	36.3	54	21.3	0	0	---	0.00	30.066 
23:20	36.3	36.3	36.3	54	21.3	0	0	---	0.00	30.066 
23:25	36.2	36.2	36.2	54	21.2	0	0	---	0.00	30.067 
23:30	36.0	36.0	36.0	54	21.0	0	0	---	0.00	30.068 
23:35	35.9	35.9	35.9	55	21.3	0	0	---	0.00	30.068 
23:40	35.8	35.8	35.8	55	21.2	0	0	---	0.00	30.068 
23:45	35.5	35.5	35.5	57	21.8	0	0	---	0.00	30.068 
23:50	35.2	35.2	35.2	58	21.9	0	0	---	0.00	30.068 
23:55	34.9	34.9	34.9	58	21.6	0	0	---	0.00	30.068 

CoCoRaHS
IN-AL-39
A2 Web Hosting
Creative Commons License
GoDaddy
Look for:

loaded 2017-10-19 14:48:21 • last modified 2010-11-18 10:43:29
Privacy PolicyDisclaimer
• wx.awcolley.com is powered by PmWiki v.2002016 •
• all content (unless otherwise noted) © 2017 A W Colley